Time;durP1;ratioP1;P1;durP2;ratioP2;P2;SDS_P1;SDS_P2;PMS_P1;PMS_P2;Temp;Humidity;BMP_temperature;BMP_pressure;BME280_temperature;BME280_humidity;BME280_pressure;Samples;Min_cycle;Max_cycle;Signal;HPM_P1;HPM_P2
2022/09/17 00:01:59;;;;;;;0.65;0.20;;;;;;;;;;4998709;28;20400;-80
2022/09/17 00:04:24;;;;;;;2.03;0.45;;;;;;;;;;4997902;28;20441;-80
2022/09/17 00:06:50;;;;;;;1.42;0.55;;;;;;;;;;4998647;28;20048;-80
2022/09/17 00:09:15;;;;;;;1.48;0.45;;;;;;;;;;5014394;28;20045;-80
2022/09/17 00:11:41;;;;;;;1.60;0.30;;;;;;;;;;5014808;28;20562;-80
2022/09/17 00:14:08;;;;;;;2.60;0.55;;;;;;;;;;4998430;28;20033;-80
2022/09/17 00:16:42;;;;;;;3.33;0.50;;;;;;;;;;4998357;28;20041;-82
2022/09/17 00:19:18;;;;;;;1.58;0.40;;;;;;;;;;5013756;28;20087;-83
2022/09/17 00:21:44;;;;;;;1.58;0.30;;;;;;;;;;4998382;28;20036;-84
2022/09/17 00:24:10;;;;;;;1.02;0.20;;;;;;;;;;4997869;28;20132;-85
2022/09/17 00:26:36;;;;;;;3.28;0.30;;;;;;;;;;4998571;28;20047;-83
2022/09/17 00:29:02;;;;;;;1.52;0.47;;;;;;;;;;4998339;28;20041;-84
2022/09/17 00:31:27;;;;;;;1.40;0.28;;;;;;;;;;5001429;28;20033;-85
2022/09/17 00:33:53;;;;;;;1.05;0.30;;;;;;;;;;4980632;28;20029;-84
2022/09/17 00:36:19;;;;;;;1.30;0.43;;;;;;;;;;4998360;28;20034;-84
2022/09/17 00:38:56;;;;;;;1.95;0.50;;;;;;;;;;4984972;28;20037;-84
2022/09/17 00:41:22;;;;;;;2.08;0.40;;;;;;;;;;4985304;28;20040;-84
2022/09/17 00:43:57;;;;;;;4.00;0.65;;;;;;;;;;5001307;28;20044;-84
2022/09/17 00:46:32;;;;;;;1.95;0.63;;;;;;;;;;4986001;28;20037;-84
2022/09/17 00:49:10;;;;;;;3.40;0.43;;;;;;;;;;5051662;28;20513;-84
2022/09/17 00:51:38;;;;;;;3.00;0.75;;;;;;;;;;4992180;28;20034;-84
2022/09/17 00:54:06;;;;;;;1.10;0.32;;;;;;;;;;4997756;28;20539;-83
2022/09/17 00:56:33;;;;;;;2.17;0.38;;;;;;;;;;4997646;28;20033;-83
2022/09/17 00:58:59;;;;;;;2.15;0.80;;;;;;;;;;4981258;28;20060;-83
2022/09/17 01:01:25;;;;;;;3.47;0.82;;;;;;;;;;5014071;28;20045;-83
2022/09/17 01:03:50;;;;;;;1.23;0.28;;;;;;;;;;5013904;28;20041;-83
2022/09/17 01:06:37;;;;;;;1.52;0.50;;;;;;;;;;4997337;28;20416;-84
2022/09/17 01:09:30;;;;;;;1.38;0.35;;;;;;;;;;4997173;28;20091;-83
2022/09/17 01:12:30;;;;;;;3.67;0.95;;;;;;;;;;4997462;28;20036;-83
2022/09/17 01:15:21;;;;;;;2.25;0.40;;;;;;;;;;4997275;28;20037;-83
2022/09/17 01:18:02;;;;;;;2.00;0.40;;;;;;;;;;4997435;28;20045;-83
2022/09/17 01:20:42;;;;;;;1.35;0.30;;;;;;;;;;4997397;28;20029;-83
2022/09/17 01:23:45;;;;;;;1.85;0.60;;;;;;;;;;4997485;28;20040;-84
2022/09/17 01:26:11;;;;;;;;;;;;;;;;;;5013787;28;20037;-83
2022/09/17 01:28:41;;;;;;;2.58;0.40;;;;;;;;;;5019032;28;19928;-83
2022/09/17 01:31:16;;;;;;;2.00;0.52;;;;;;;;;;5023962;28;20514;-83
2022/09/17 01:34:03;;;;;;;2.42;0.50;;;;;;;;;;5033380;28;20064;-83
2022/09/17 01:36:59;;;;;;;2.58;0.52;;;;;;;;;;5050860;28;20039;-83
2022/09/17 01:39:47;;;;;;;2.97;0.40;;;;;;;;;;5016741;28;20495;-83
2022/09/17 01:42:49;;;;;;;2.10;0.30;;;;;;;;;;5050054;28;20040;-83
2022/09/17 01:45:26;;;;;;;1.50;0.50;;;;;;;;;;5016619;28;20067;-83
2022/09/17 01:47:57;;;;;;;2.42;0.32;;;;;;;;;;5000537;28;20092;-83
2022/09/17 01:50:25;;;;;;;2.05;0.57;;;;;;;;;;5016844;28;20040;-82
2022/09/17 01:52:52;;;;;;;1.73;0.47;;;;;;;;;;5032570;28;20029;-83
2022/09/17 01:55:17;;;;;;;1.95;0.50;;;;;;;;;;5016575;28;20029;-82
2022/09/17 01:57:54;;;;;;;2.63;0.47;;;;;;;;;;5016788;28;20403;-83
2022/09/17 02:00:21;;;;;;;2.35;0.40;;;;;;;;;;5032786;28;20033;-83
2022/09/17 02:02:49;;;;;;;2.35;0.55;;;;;;;;;;5016631;28;20041;-84
2022/09/17 02:05:19;;;;;;;1.75;0.40;;;;;;;;;;5033447;28;20443;-83
2022/09/17 02:07:48;;;;;;;3.42;0.52;;;;;;;;;;5032838;28;20565;-83
2022/09/17 02:10:17;;;;;;;0.93;0.17;;;;;;;;;;5016896;28;20043;-83
2022/09/17 02:12:55;;;;;;;1.50;0.35;;;;;;;;;;5002745;28;20029;-83
2022/09/17 02:15:23;;;;;;;2.05;0.75;;;;;;;;;;5020342;28;20029;-83
2022/09/17 02:18:22;;;;;;;2.13;0.50;;;;;;;;;;5003772;28;20039;-83
2022/09/17 02:20:49;;;;;;;2.88;0.25;;;;;;;;;;5019918;28;20098;-83
2022/09/17 02:23:27;;;;;;;2.58;0.68;;;;;;;;;;5003585;28;20065;-83
2022/09/17 02:25:59;;;;;;;2.45;0.55;;;;;;;;;;5000954;28;20046;-82
2022/09/17 02:28:26;;;;;;;1.70;0.40;;;;;;;;;;5002166;28;20041;-83
2022/09/17 02:30:52;;;;;;;4.30;0.57;;;;;;;;;;4992699;28;20052;-83
2022/09/17 02:33:18;;;;;;;3.50;0.52;;;;;;;;;;5003169;28;20037;-83
2022/09/17 02:35:45;;;;;;;1.75;0.30;;;;;;;;;;5003612;28;20453;-83
2022/09/17 02:38:11;;;;;;;4.05;0.50;;;;;;;;;;5000066;28;20651;-82
2022/09/17 02:40:43;;;;;;;1.63;0.30;;;;;;;;;;5000045;28;20132;-83
2022/09/17 02:43:13;;;;;;;;;;;;;;;;;;5001047;28;20069;-83
2022/09/17 02:46:02;;;;;;;2.28;0.43;;;;;;;;;;5000286;28;19931;-83
2022/09/17 02:49:16;;;;;;;3.20;0.60;;;;;;;;;;5000049;28;20033;-83
2022/09/17 02:51:52;;;;;;;4.68;0.50;;;;;;;;;;4978943;28;20057;-82
2022/09/17 02:54:40;;;;;;;2.53;0.50;;;;;;;;;;4999531;28;20037;-83
2022/09/17 02:57:08;;;;;;;7.18;0.68;;;;;;;;;;4983501;28;20029;-83
2022/09/17 03:00:04;;;;;;;3.03;0.55;;;;;;;;;;4999732;28;20046;-83
2022/09/17 03:02:32;;;;;;;2.00;0.43;;;;;;;;;;5011669;28;20048;-83
2022/09/17 03:04:58;;;;;;;1.75;0.30;;;;;;;;;;5000133;28;20049;-83
2022/09/17 03:07:23;;;;;;;3.05;0.75;;;;;;;;;;4967307;28;20052;-83
2022/09/17 03:09:49;;;;;;;2.53;0.68;;;;;;;;;;4983635;28;20041;-83
2022/09/17 03:12:15;;;;;;;2.63;0.60;;;;;;;;;;4966918;28;20087;-82
2022/09/17 03:14:40;;;;;;;2.05;0.38;;;;;;;;;;4999390;28;20041;-82
2022/09/17 03:17:06;;;;;;;3.10;0.47;;;;;;;;;;5013148;28;20037;-82
2022/09/17 03:19:32;;;;;;;2.75;0.60;;;;;;;;;;5002902;28;20076;-83
2022/09/17 03:21:57;;;;;;;3.65;0.65;;;;;;;;;;5002372;28;20132;-83
2022/09/17 03:24:23;;;;;;;1.20;0.45;;;;;;;;;;4986203;28;20214;-84
2022/09/17 03:26:49;;;;;;;3.85;0.60;;;;;;;;;;5002963;28;20036;-84
2022/09/17 03:29:15;;;;;;;3.50;0.75;;;;;;;;;;5002537;28;20064;-83
2022/09/17 03:31:40;;;;;;;1.30;0.30;;;;;;;;;;5014445;28;20041;-83
2022/09/17 03:34:06;;;;;;;2.80;0.30;;;;;;;;;;5002201;28;20523;-84
2022/09/17 03:36:31;;;;;;;2.97;0.40;;;;;;;;;;5002681;28;20110;-84
2022/09/17 03:38:57;;;;;;;3.38;0.40;;;;;;;;;;4986234;28;20029;-85
2022/09/17 03:41:24;;;;;;;2.55;0.35;;;;;;;;;;5002870;28;20119;-87
2022/09/17 03:43:50;;;;;;;2.38;0.60;;;;;;;;;;5003164;28;20029;-87
2022/09/17 03:46:17;;;;;;;2.92;0.70;;;;;;;;;;5003207;28;20513;-87
2022/09/17 03:48:42;;;;;;;3.38;0.68;;;;;;;;;;4986830;28;20036;-87
2022/09/17 03:51:11;;;;;;;3.15;0.47;;;;;;;;;;5003573;28;20041;-87
2022/09/17 03:53:37;;;;;;;1.30;0.38;;;;;;;;;;5002947;28;20025;-88
2022/09/17 03:56:05;;;;;;;3.20;0.85;;;;;;;;;;4986476;28;20037;-85
2022/09/17 03:58:33;;;;;;;2.03;0.50;;;;;;;;;;5002874;28;20040;-88
2022/09/17 04:00:58;;;;;;;3.40;1.02;;;;;;;;;;4986572;28;20040;-87
2022/09/17 04:03:25;;;;;;;2.78;0.35;;;;;;;;;;5002346;28;20124;-87
2022/09/17 04:05:51;;;;;;;2.42;0.70;;;;;;;;;;5002713;28;20033;-87
2022/09/17 04:08:17;;;;;;;1.65;0.30;;;;;;;;;;5002079;28;20041;-85
2022/09/17 04:10:43;;;;;;;2.40;0.50;;;;;;;;;;4992572;28;20099;-86
2022/09/17 04:13:08;;;;;;;2.28;0.45;;;;;;;;;;4982569;28;20028;-87
2022/09/17 04:15:34;;;;;;;1.27;0.40;;;;;;;;;;4982872;28;20037;-86
2022/09/17 04:18:00;;;;;;;4.43;0.82;;;;;;;;;;4982466;28;20120;-86
2022/09/17 04:20:27;;;;;;;1.80;0.50;;;;;;;;;;4998835;28;20037;-86
2022/09/17 04:22:52;;;;;;;2.50;0.50;;;;;;;;;;4998567;28;20107;-86
2022/09/17 04:25:18;;;;;;;2.60;0.60;;;;;;;;;;4998385;28;20435;-86
2022/09/17 04:27:44;;;;;;;2.55;0.43;;;;;;;;;;4998682;28;20030;-87
2022/09/17 04:30:10;;;;;;;3.85;0.52;;;;;;;;;;5000584;28;20071;-87
2022/09/17 04:32:37;;;;;;;2.58;0.45;;;;;;;;;;4985717;28;20574;-87
2022/09/17 04:35:03;;;;;;;2.45;0.50;;;;;;;;;;4985566;28;20052;-86
2022/09/17 04:37:29;;;;;;;1.67;0.50;;;;;;;;;;5001950;28;20033;-86
2022/09/17 04:39:54;;;;;;;2.72;0.70;;;;;;;;;;5001522;28;20047;-85
2022/09/17 04:42:21;;;;;;;3.25;0.70;;;;;;;;;;5017836;28;20075;-85
2022/09/17 04:44:48;;;;;;;1.95;0.40;;;;;;;;;;5001842;28;20174;-85
2022/09/17 04:47:15;;;;;;;3.85;0.85;;;;;;;;;;5017898;28;20431;-85
2022/09/17 04:49:41;;;;;;;1.67;0.40;;;;;;;;;;5001364;28;20041;-85
2022/09/17 04:52:07;;;;;;;1.42;0.30;;;;;;;;;;4985212;28;20032;-85
2022/09/17 04:54:33;;;;;;;1.63;0.50;;;;;;;;;;4984879;28;20385;-85
2022/09/17 04:57:00;;;;;;;3.58;0.90;;;;;;;;;;5001338;28;20028;-85
2022/09/17 04:59:26;;;;;;;1.92;0.40;;;;;;;;;;5001322;28;20044;-85
2022/09/17 05:01:51;;;;;;;5.45;0.85;;;;;;;;;;5017157;28;20049;-84
2022/09/17 05:04:17;;;;;;;4.55;0.90;;;;;;;;;;4981525;28;20064;-84
2022/09/17 05:06:42;;;;;;;1.95;0.40;;;;;;;;;;4997649;28;20037;-85
2022/09/17 05:09:08;;;;;;;1.80;0.47;;;;;;;;;;4997324;28;20049;-85
2022/09/17 05:11:33;;;;;;;2.75;0.40;;;;;;;;;;4997841;28;20032;-84
2022/09/17 05:14:00;;;;;;;3.17;0.60;;;;;;;;;;4981456;28;20030;-85
2022/09/17 05:16:26;;;;;;;2.22;0.68;;;;;;;;;;5014395;28;20084;-86
2022/09/17 05:18:54;;;;;;;3.85;0.60;;;;;;;;;;4998034;28;20041;-86
2022/09/17 05:21:19;;;;;;;3.30;0.75;;;;;;;;;;4981948;28;20044;-86
2022/09/17 05:23:46;;;;;;;2.70;0.32;;;;;;;;;;4997351;28;20037;-85
2022/09/17 05:26:12;;;;;;;2.15;0.50;;;;;;;;;;4981936;28;20069;-84
2022/09/17 05:28:37;;;;;;;3.83;1.00;;;;;;;;;;4984841;28;20111;-84
2022/09/17 05:31:03;;;;;;;2.47;0.50;;;;;;;;;;5013574;28;20472;-85
2022/09/17 05:33:28;;;;;;;2.53;0.40;;;;;;;;;;4997494;28;20400;-86
2022/09/17 05:35:55;;;;;;;1.90;0.30;;;;;;;;;;4997333;28;20033;-85
2022/09/17 05:38:24;;;;;;;2.55;0.60;;;;;;;;;;4996376;28;20041;-86
2022/09/17 05:40:50;;;;;;;2.03;0.63;;;;;;;;;;5001837;28;20064;-84
2022/09/17 05:43:16;;;;;;;3.58;0.75;;;;;;;;;;5017256;28;20033;-86
2022/09/17 05:45:42;;;;;;;3.33;0.60;;;;;;;;;;5001118;28;20400;-84
2022/09/17 05:48:10;;;;;;;2.78;0.60;;;;;;;;;;5004205;28;20504;-85
2022/09/17 05:50:36;;;;;;;4.35;0.68;;;;;;;;;;5021238;28;20033;-85
2022/09/17 05:53:06;;;;;;;1.48;0.35;;;;;;;;;;5020553;28;20086;-85
2022/09/17 05:55:32;;;;;;;1.52;0.47;;;;;;;;;;5004503;28;20044;-85
2022/09/17 05:57:57;;;;;;;2.67;0.50;;;;;;;;;;5035609;28;20544;-85
2022/09/17 06:00:24;;;;;;;2.75;0.47;;;;;;;;;;5001567;28;20041;-85
2022/09/17 06:02:58;;;;;;;2.30;0.50;;;;;;;;;;5000705;28;20037;-84
2022/09/17 06:05:24;;;;;;;1.95;0.63;;;;;;;;;;5000879;28;20046;-84
2022/09/17 06:07:49;;;;;;;5.35;0.70;;;;;;;;;;5000631;28;20053;-85
2022/09/17 06:10:15;;;;;;;2.40;0.75;;;;;;;;;;5001000;28;20033;-84
2022/09/17 06:12:41;;;;;;;1.60;0.65;;;;;;;;;;4984530;28;20033;-85
2022/09/17 06:15:08;;;;;;;3.92;0.70;;;;;;;;;;5000733;28;20053;-85
2022/09/17 06:17:34;;;;;;;3.50;0.80;;;;;;;;;;5000519;28;20488;-85
2022/09/17 06:20:00;;;;;;;4.07;1.00;;;;;;;;;;4984477;28;20034;-85
2022/09/17 06:22:26;;;;;;;3.08;0.77;;;;;;;;;;4984355;28;20029;-85
2022/09/17 06:24:52;;;;;;;2.80;0.88;;;;;;;;;;4984357;28;20171;-85
2022/09/17 06:27:18;;;;;;;6.45;0.60;;;;;;;;;;5002371;28;20045;-84
2022/09/17 06:29:43;;;;;;;5.20;1.00;;;;;;;;;;5015440;28;20461;-84
2022/09/17 06:32:11;;;;;;;6.50;0.70;;;;;;;;;;5019427;28;20041;-84
2022/09/17 06:34:37;;;;;;;5.75;1.58;;;;;;;;;;5003235;28;20045;-84
2022/09/17 06:37:05;;;;;;;14.30;1.67;;;;;;;;;;5011511;28;20580;-84
2022/09/17 06:39:30;;;;;;;13.00;1.70;;;;;;;;;;5003092;28;20032;-83
2022/09/17 06:41:55;;;;;;;13.30;2.28;;;;;;;;;;5003072;28;20706;-84
2022/09/17 06:44:21;;;;;;;11.70;1.73;;;;;;;;;;5003918;28;20033;-86
2022/09/17 06:46:50;;;;;;;10.82;1.70;;;;;;;;;;5002376;28;20041;-84
2022/09/17 06:49:16;;;;;;;7.88;2.17;;;;;;;;;;4998946;28;20033;-85
2022/09/17 06:51:42;;;;;;;8.20;1.40;;;;;;;;;;5019106;28;20064;-86
2022/09/17 06:54:08;;;;;;;15.60;2.45;;;;;;;;;;5003460;28;20033;-86
2022/09/17 06:56:34;;;;;;;9.52;1.45;;;;;;;;;;4986989;28;20025;-87
2022/09/17 06:59:00;;;;;;;12.18;1.73;;;;;;;;;;4986370;28;20056;-87
2022/09/17 07:01:25;;;;;;;8.95;1.63;;;;;;;;;;5003585;28;20503;-87
2022/09/17 07:03:52;;;;;;;6.35;1.50;;;;;;;;;;5003677;28;20040;-86
2022/09/17 07:06:17;;;;;;;10.48;1.67;;;;;;;;;;5003766;28;20049;-86
2022/09/17 07:08:45;;;;;;;9.23;2.00;;;;;;;;;;5019757;28;20504;-87
2022/09/17 07:11:12;;;;;;;6.75;1.50;;;;;;;;;;4987951;28;20037;-86
2022/09/17 07:13:38;;;;;;;8.38;1.70;;;;;;;;;;5003768;28;20025;-86
2022/09/17 07:16:05;;;;;;;8.02;1.27;;;;;;;;;;4989127;28;20396;-87
2022/09/17 07:18:31;;;;;;;8.80;1.50;;;;;;;;;;5006502;28;20448;-88
2022/09/17 07:20:59;;;;;;;9.43;1.20;;;;;;;;;;5003944;28;20041;-88
2022/09/17 07:23:25;;;;;;;14.23;2.20;;;;;;;;;;4998279;28;20103;-87
2022/09/17 07:25:56;;;;;;;9.85;2.13;;;;;;;;;;5000981;28;20072;-87
2022/09/17 07:28:22;;;;;;;9.65;1.83;;;;;;;;;;5001913;28;20043;-87
2022/09/17 07:30:49;;;;;;;10.25;1.98;;;;;;;;;;5007587;28;20041;-88
2022/09/17 07:33:15;;;;;;;26.30;2.25;;;;;;;;;;5019074;28;20025;-83
2022/09/17 07:35:42;;;;;;;10.20;1.88;;;;;;;;;;4987220;28;20192;-88
2022/09/17 07:38:10;;;;;;;12.63;2.70;;;;;;;;;;4987210;28;20075;-88
2022/09/17 07:40:36;;;;;;;14.27;1.50;;;;;;;;;;4988090;28;20033;-86
2022/09/17 07:43:03;;;;;;;20.58;2.88;;;;;;;;;;5003540;28;20041;-84
2022/09/17 07:45:28;;;;;;;8.57;2.08;;;;;;;;;;5003056;28;20121;-84
2022/09/17 07:47:55;;;;;;;24.48;3.63;;;;;;;;;;5002689;28;20044;-86
2022/09/17 07:50:21;;;;;;;15.70;4.30;;;;;;;;;;5000985;28;20107;-86
2022/09/17 07:52:48;;;;;;;19.92;6.22;;;;;;;;;;5001491;28;20042;-86
2022/09/17 07:55:14;;;;;;;30.95;10.50;;;;;;;;;;5001271;28;20038;-83
2022/09/17 07:57:40;;;;;;;20.65;8.27;;;;;;;;;;4983199;28;20124;-86
2022/09/17 08:00:06;;;;;;;31.25;10.18;;;;;;;;;;4982612;28;20040;-83
2022/09/17 08:02:32;;;;;;;26.75;9.93;;;;;;;;;;4981678;28;20541;-83
2022/09/17 08:04:57;;;;;;;34.67;11.98;;;;;;;;;;4982505;28;20037;-83
2022/09/17 08:07:23;;;;;;;26.33;10.20;;;;;;;;;;4985233;28;20078;-83
2022/09/17 08:09:48;;;;;;;27.77;11.23;;;;;;;;;;5000765;28;20483;-83
2022/09/17 08:12:14;;;;;;;23.63;9.40;;;;;;;;;;5017908;28;20056;-84
2022/09/17 08:14:39;;;;;;;20.27;10.05;;;;;;;;;;5001722;28;20133;-84
2022/09/17 08:17:07;;;;;;;22.23;8.75;;;;;;;;;;4985214;28;20029;-83
2022/09/17 08:19:32;;;;;;;19.25;8.98;;;;;;;;;;5018267;28;20119;-83
2022/09/17 08:21:58;;;;;;;17.88;8.27;;;;;;;;;;5001554;28;20112;-83
2022/09/17 08:24:23;;;;;;;20.08;7.25;;;;;;;;;;5001485;28;20036;-82
2022/09/17 08:26:49;;;;;;;36.75;8.98;;;;;;;;;;4985258;28;20556;-83
2022/09/17 08:29:14;;;;;;;20.40;6.68;;;;;;;;;;4995759;28;20490;-84
2022/09/17 08:31:40;;;;;;;17.92;5.95;;;;;;;;;;4994040;28;20685;-84
2022/09/17 08:34:08;;;;;;;12.13;4.97;;;;;;;;;;4999165;28;20044;-84
2022/09/17 08:36:34;;;;;;;11.98;4.63;;;;;;;;;;4999881;28;20103;-84
2022/09/17 08:38:59;;;;;;;12.00;4.63;;;;;;;;;;4981417;28;20120;-84
2022/09/17 08:41:34;;;;;;;16.80;4.32;;;;;;;;;;5009114;28;20037;-85
2022/09/17 08:44:02;;;;;;;14.73;4.40;;;;;;;;;;5017521;28;20056;-84
2022/09/17 08:46:31;;;;;;;17.52;5.03;;;;;;;;;;5033444;28;20040;-83
2022/09/17 08:48:59;;;;;;;11.38;4.25;;;;;;;;;;5001480;28;20487;-84
2022/09/17 08:51:38;;;;;;;9.63;4.38;;;;;;;;;;5013874;28;20530;-85
2022/09/17 08:54:08;;;;;;;10.48;3.90;;;;;;;;;;4981536;28;20554;-84
2022/09/17 08:56:33;;;;;;;15.02;4.70;;;;;;;;;;4981764;28;20116;-84
2022/09/17 08:59:11;;;;;;;11.80;3.85;;;;;;;;;;4981740;28;20408;-85
2022/09/17 09:01:59;;;;;;;10.40;4.10;;;;;;;;;;4997080;28;20033;-84
2022/09/17 09:05:11;;;;;;;8.82;3.72;;;;;;;;;;4997826;28;20045;-84
2022/09/17 09:07:58;;;;;;;7.68;3.78;;;;;;;;;;4985061;28;20049;-84
2022/09/17 09:10:25;;;;;;;11.48;3.08;;;;;;;;;;4999590;28;20045;-85
2022/09/17 09:12:51;;;;;;;9.55;3.03;;;;;;;;;;4965476;28;20076;-85
2022/09/17 09:15:42;;;;;;;10.93;3.03;;;;;;;;;;4980873;28;20056;-83
2022/09/17 09:18:19;;;;;;;10.88;3.33;;;;;;;;;;4997454;28;20048;-85
2022/09/17 09:21:00;;;;;;;9.07;2.92;;;;;;;;;;4964908;28;20025;-84
2022/09/17 09:23:55;;;;;;;9.38;2.65;;;;;;;;;;5013768;28;20045;-84
2022/09/17 09:26:22;;;;;;;11.02;3.05;;;;;;;;;;4981054;28;20067;-85
2022/09/17 09:28:48;;;;;;;8.77;2.55;;;;;;;;;;4986743;28;20035;-83
2022/09/17 09:31:44;;;;;;;8.73;2.65;;;;;;;;;;5032527;28;20037;-84
2022/09/17 09:34:11;;;;;;;6.40;2.45;;;;;;;;;;5016781;28;20056;-85
2022/09/17 09:36:36;;;;;;;9.45;3.03;;;;;;;;;;5000629;28;20087;-84
2022/09/17 09:39:06;;;;;;;6.43;2.10;;;;;;;;;;5033091;28;20045;-84
2022/09/17 09:41:53;;;;;;;6.93;2.55;;;;;;;;;;5000671;28;20123;-84
2022/09/17 09:44:27;;;;;;;9.18;2.58;;;;;;;;;;5038306;28;20040;-85
2022/09/17 09:47:14;;;;;;;8.88;2.35;;;;;;;;;;5004252;28;20079;-83
2022/09/17 09:50:16;;;;;;;6.65;2.42;;;;;;;;;;5041784;28;20045;-83
2022/09/17 09:53:03;;;;;;;7.13;2.40;;;;;;;;;;5030498;28;20037;-83
2022/09/17 09:55:53;;;;;;;7.88;1.63;;;;;;;;;;5033233;28;20184;-82
2022/09/17 09:58:37;;;;;;;9.68;2.00;;;;;;;;;;5033220;28;20036;-82
2022/09/17 10:01:12;;;;;;;5.20;1.75;;;;;;;;;;5015880;28;20033;-81
2022/09/17 10:03:39;;;;;;;17.15;2.53;;;;;;;;;;5001207;28;20052;-82
2022/09/17 10:06:06;;;;;;;21.80;3.88;;;;;;;;;;4993902;28;20492;-83
2022/09/17 10:08:36;;;;;;;18.30;3.65;;;;;;;;;;4997224;28;20037;-82
2022/09/17 10:11:06;;;;;;;14.85;2.72;;;;;;;;;;4997020;28;20454;-83
2022/09/17 10:13:34;;;;;;;14.95;3.40;;;;;;;;;;4995539;28;20030;-82
2022/09/17 10:16:28;;;;;;;12.27;3.22;;;;;;;;;;4996415;28;20067;-83
2022/09/17 10:19:02;;;;;;;14.02;2.78;;;;;;;;;;5030674;28;20033;-83
2022/09/17 10:21:35;;;;;;;16.20;3.78;;;;;;;;;;5033011;28;20040;-83
2022/09/17 10:24:01;;;;;;;18.85;3.83;;;;;;;;;;5016798;28;20083;-83
2022/09/17 10:26:32;;;;;;;19.63;3.20;;;;;;;;;;5017152;28;20041;-84
2022/09/17 10:28:58;;;;;;;64.82;41.53;;;;;;;;;;5018062;28;20116;-84
2022/09/17 10:31:23;;;;;;;174.75;155.38;;;;;;;;;;5000129;28;20032;-83
2022/09/17 10:33:54;;;;;;;129.77;114.13;;;;;;;;;;5002607;28;20492;-83
2022/09/17 10:36:42;;;;;;;95.68;81.60;;;;;;;;;;5003701;28;20067;-82
2022/09/17 10:39:26;;;;;;;75.65;55.60;;;;;;;;;;5016708;28;20045;-83
2022/09/17 10:41:59;;;;;;;68.07;51.83;;;;;;;;;;5016249;28;20052;-82
2022/09/17 10:44:26;;;;;;;81.30;49.28;;;;;;;;;;5000355;28;20037;-82
2022/09/17 10:46:51;;;;;;;78.93;51.00;;;;;;;;;;4984067;28;20037;-82
2022/09/17 10:49:36;;;;;;;72.05;47.88;;;;;;;;;;4971140;28;20136;-82
2022/09/17 10:52:20;;;;;;;58.70;42.42;;;;;;;;;;5006972;28;20096;-82
2022/09/17 10:55:32;;;;;;;58.78;42.97;;;;;;;;;;5015886;28;20041;-83
2022/09/17 10:58:23;;;;;;;53.65;39.22;;;;;;;;;;4957527;28;20046;-87
2022/09/17 11:01:01;;;;;;;57.33;38.90;;;;;;;;;;4957478;28;20035;-86
2022/09/17 11:03:32;;;;;;;48.97;35.60;;;;;;;;;;4991113;28;20079;-86
2022/09/17 11:05:58;;;;;;;54.00;39.63;;;;;;;;;;5033348;28;20041;-85
2022/09/17 11:08:33;;;;;;;45.70;34.75;;;;;;;;;;5000423;28;20527;-87
2022/09/17 11:11:10;;;;;;;46.13;32.70;;;;;;;;;;5012769;28;20037;-84
2022/09/17 11:13:47;;;;;;;51.58;32.75;;;;;;;;;;4967660;28;20075;-83
2022/09/17 11:16:50;;;;;;;51.53;32.90;;;;;;;;;;4984238;28;20125;-83
2022/09/17 11:19:46;;;;;;;36.53;28.23;;;;;;;;;;4983385;28;20067;-83
2022/09/17 11:22:17;;;;;;;38.97;25.13;;;;;;;;;;5020090;23;20061;-82
2022/09/17 11:24:48;;;;;;;43.58;27.63;;;;;;;;;;4985185;28;20077;-82
2022/09/17 11:27:27;;;;;;;38.67;26.25;;;;;;;;;;4978931;28;20161;-82
2022/09/17 11:30:15;;;;;;;54.65;26.00;;;;;;;;;;5045379;28;20036;-83
2022/09/17 11:32:53;;;;;;;35.97;24.67;;;;;;;;;;5002548;28;20033;-83
2022/09/17 11:35:19;;;;;;;50.20;25.20;;;;;;;;;;5018778;28;20136;-82
2022/09/17 11:37:50;;;;;;;80.70;27.98;;;;;;;;;;5002257;28;20060;-81
2022/09/17 11:40:40;;;;;;;84.22;27.80;;;;;;;;;;5018249;28;20082;-81
2022/09/17 11:43:24;;;;;;;72.25;26.85;;;;;;;;;;5002015;28;20029;-82
2022/09/17 11:46:21;;;;;;;113.45;30.33;;;;;;;;;;5018059;28;20037;-83
2022/09/17 11:48:57;;;;;;;90.68;25.35;;;;;;;;;;5002263;28;20507;-83
2022/09/17 11:51:25;;;;;;;57.28;21.38;;;;;;;;;;5002341;28;20049;-82
2022/09/17 11:54:15;;;;;;;48.97;22.20;;;;;;;;;;5034542;28;20033;-82
2022/09/17 11:56:43;;;;;;;43.10;20.20;;;;;;;;;;5018556;28;20091;-84
2022/09/17 11:59:42;;;;;;;38.88;18.38;;;;;;;;;;4985924;28;20056;-85
2022/09/17 12:02:08;;;;;;;43.53;17.92;;;;;;;;;;5018898;28;20514;-86
2022/09/17 12:04:49;;;;;;;34.78;16.10;;;;;;;;;;5018322;28;20079;-86
2022/09/17 12:07:57;;;;;;;37.42;17.75;;;;;;;;;;5015617;28;20533;-85
2022/09/17 12:10:31;;;;;;;36.15;17.42;;;;;;;;;;5026142;28;20520;-85
2022/09/17 12:13:21;;;;;;;30.70;16.23;;;;;;;;;;4986566;28;20522;-85
2022/09/17 12:15:48;;;;;;;37.13;17.58;;;;;;;;;;5034248;28;20025;-85
2022/09/17 12:18:52;;;;;;;51.13;17.30;;;;;;;;;;4986060;28;20067;-84
2022/09/17 12:21:43;;;;;;;67.40;19.40;;;;;;;;;;5036975;28;20041;-84
2022/09/17 12:24:18;;;;;;;50.63;15.73;;;;;;;;;;5019180;28;20057;-84
2022/09/17 12:27:02;;;;;;;35.65;14.98;;;;;;;;;;5033545;28;20030;-85
2022/09/17 12:29:50;;;;;;;31.70;13.77;;;;;;;;;;5014999;28;20037;-84
2022/09/17 12:32:57;;;;;;;28.67;12.20;;;;;;;;;;5017418;28;20040;-83
2022/09/17 12:35:41;;;;;;;28.27;12.27;;;;;;;;;;5018277;28;20048;-83
2022/09/17 12:38:10;;;;;;;30.20;12.15;;;;;;;;;;5014125;28;20037;-83
2022/09/17 12:40:44;;;;;;;31.60;12.40;;;;;;;;;;5018722;28;20415;-83
2022/09/17 12:43:52;;;;;;;25.65;11.10;;;;;;;;;;5019301;28;20029;-82
2022/09/17 12:46:27;;;;;;;23.75;10.85;;;;;;;;;;5023298;28;20140;-83
2022/09/17 12:49:20;;;;;;;26.55;11.70;;;;;;;;;;5017548;28;20091;-82
2022/09/17 12:51:58;;;;;;;25.98;10.20;;;;;;;;;;5006477;28;20041;-82
2022/09/17 12:54:39;;;;;;;19.67;9.75;;;;;;;;;;4980881;28;20033;-82
2022/09/17 12:57:30;;;;;;;22.13;9.02;;;;;;;;;;5014303;28;20096;-83
2022/09/17 13:00:06;;;;;;;17.95;9.98;;;;;;;;;;4981395;28;20044;-83
2022/09/17 13:03:02;;;;;;;17.02;7.95;;;;;;;;;;5008890;28;20033;-83
2022/09/17 13:05:50;;;;;;;17.88;8.38;;;;;;;;;;5033832;28;20044;-83
2022/09/17 13:08:38;;;;;;;15.43;7.53;;;;;;;;;;5017893;28;20079;-82
2022/09/17 13:11:33;;;;;;;19.85;6.88;;;;;;;;;;5034082;28;20047;-82
2022/09/17 13:14:22;;;;;;;17.20;7.72;;;;;;;;;;5016863;28;20033;-83
2022/09/17 13:16:55;;;;;;;14.05;6.90;;;;;;;;;;5010642;28;20095;-82
2022/09/17 13:19:27;;;;;;;17.05;7.53;;;;;;;;;;4997911;28;20084;-82
2022/09/17 13:21:59;;;;;;;15.55;6.65;;;;;;;;;;4998729;28;20037;-83
2022/09/17 13:24:27;;;;;;;14.70;7.05;;;;;;;;;;4985005;28;20043;-83
2022/09/17 13:26:53;;;;;;;11.57;5.32;;;;;;;;;;4985875;28;20052;-83
2022/09/17 13:29:43;;;;;;;13.75;5.93;;;;;;;;;;4993040;28;20037;-82
2022/09/17 13:32:31;;;;;;;12.88;5.70;;;;;;;;;;5032266;28;20072;-83
2022/09/17 13:35:13;;;;;;;13.23;5.80;;;;;;;;;;5006472;28;20034;-82
2022/09/17 13:37:43;;;;;;;21.03;6.53;;;;;;;;;;5008930;28;20491;-83
2022/09/17 13:40:28;;;;;;;12.43;5.15;;;;;;;;;;5001093;28;20341;-81
2022/09/17 13:43:18;;;;;;;13.15;5.68;;;;;;;;;;4985085;28;20029;-83
2022/09/17 13:45:58;;;;;;;18.98;5.55;;;;;;;;;;5002728;28;20103;-84
2022/09/17 13:48:25;;;;;;;12.25;5.07;;;;;;;;;;5017533;28;20533;-83
2022/09/17 13:50:51;;;;;;;10.02;4.28;;;;;;;;;;4980862;28;20029;-83
2022/09/17 13:53:20;;;;;;;11.32;4.60;;;;;;;;;;5014644;28;20083;-81
2022/09/17 13:55:57;;;;;;;19.35;5.43;;;;;;;;;;4973143;28;20052;-86
2022/09/17 13:58:29;;;;;;;17.27;4.53;;;;;;;;;;4990201;28;20443;-83
2022/09/17 14:01:10;;;;;;;14.43;4.47;;;;;;;;;;5008223;28;20030;-83
2022/09/17 14:03:47;;;;;;;15.32;4.10;;;;;;;;;;4994168;28;20048;-84
2022/09/17 14:06:20;;;;;;;14.57;4.90;;;;;;;;;;5013784;28;20037;-84
2022/09/17 14:08:50;;;;;;;19.92;4.47;;;;;;;;;;5029046;28;20033;-82
2022/09/17 14:11:22;;;;;;;17.52;4.35;;;;;;;;;;5015538;28;20385;-84
2022/09/17 14:13:51;;;;;;;14.85;4.25;;;;;;;;;;5031813;28;20036;-83
2022/09/17 14:16:27;;;;;;;16.63;4.05;;;;;;;;;;5016036;28;20099;-83
2022/09/17 14:19:22;;;;;;;12.30;3.30;;;;;;;;;;5015352;28;20025;-83
2022/09/17 14:21:52;;;;;;;10.23;3.38;;;;;;;;;;4999270;28;20047;-84
2022/09/17 14:24:36;;;;;;;10.82;3.75;;;;;;;;;;5010109;28;20049;-84
2022/09/17 14:27:20;;;;;;;11.27;3.28;;;;;;;;;;5013617;28;20037;-83
2022/09/17 14:29:54;;;;;;;14.18;3.17;;;;;;;;;;5020890;28;20045;-84
2022/09/17 14:32:31;;;;;;;7.18;3.20;;;;;;;;;;5002176;28;20030;-87
2022/09/17 14:35:01;;;;;;;9.90;2.47;;;;;;;;;;5003616;28;20041;-91
2022/09/17 14:37:30;;;;;;;14.45;2.88;;;;;;;;;;5001850;28;20045;-90
2022/09/17 14:39:55;;;;;;;13.40;2.85;;;;;;;;;;4985021;28;20128;-87
2022/09/17 14:42:23;;;;;;;12.48;4.13;;;;;;;;;;4984756;28;20128;-86
2022/09/17 14:45:00;;;;;;;13.15;3.70;;;;;;;;;;5000468;28;20068;-87
2022/09/17 14:47:27;;;;;;;17.60;3.72;;;;;;;;;;5001008;28;20029;-85
2022/09/17 14:49:53;;;;;;;14.02;3.97;;;;;;;;;;5000949;28;20037;-88
2022/09/17 14:52:29;;;;;;;10.95;3.35;;;;;;;;;;4984920;28;20033;-88
2022/09/17 14:55:22;;;;;;;17.80;3.30;;;;;;;;;;4984626;28;20411;-90
2022/09/17 14:57:54;;;;;;;9.10;3.42;;;;;;;;;;5011479;28;20084;-88
2022/09/17 15:00:23;;;;;;;14.15;2.80;;;;;;;;;;5000750;28;20543;-88
2022/09/17 15:02:58;;;;;;;10.73;2.53;;;;;;;;;;5000914;28;20069;-88
2022/09/17 15:05:37;;;;;;;9.23;2.63;;;;;;;;;;4984889;28;20039;-89
2022/09/17 15:08:09;;;;;;;11.50;2.55;;;;;;;;;;4984556;28;20033;-87
2022/09/17 15:10:52;;;;;;;11.32;2.70;;;;;;;;;;5017401;28;20522;-90